Terminal Aerodrome Forecast
Issued by NWS

Home | Current Version | Previous Version | Text Only | Print | Product List | Glossary On
Versions: 1 2 3 4 5 6 7 8 9 10 11 12 13 14 15 16 17 18 19
637
FTUS41 KBGM 231120
TAFRME
TAF
KRME 231120Z 2312/2412 31005KT P6SM SKC
     FM231700 28008KT P6SM SCT200
     FM240000 10003KT P6SM SCT200
     FM240900 12006KT P6SM BKN050 OVC100=

USA.gov is the U.S. government's official web portal to all federal, state and local government web resources and services.